createdAt,value
2023-03-17T09:41:55.242Z,0.0000
2023-03-17T09:42:55.296Z,0.0000
2023-03-17T09:44:52.833Z,0.0000
2023-03-17T09:45:54.832Z,0.0000
2023-03-17T09:46:56.911Z,0.0000
2023-03-17T09:47:57.567Z,0.0000
2023-03-17T09:48:59.246Z,0.0000
2023-03-17T09:50:01.438Z,0.0000
2023-03-17T09:51:01.255Z,0.0000
2023-03-17T09:52:03.325Z,0.0000
2023-03-17T09:53:05.316Z,0.0000
2023-03-17T09:54:07.365Z,0.0000
2023-03-17T09:55:09.336Z,0.0000
2023-03-17T09:56:11.336Z,0.0000
2023-03-17T09:58:35.369Z,27.0432
2023-03-17T10:01:37.256Z,29.3106
2023-03-17T10:02:37.534Z,29.1734
2023-03-17T10:03:37.844Z,30.0077
2023-03-17T10:04:38.186Z,29.5484
2023-03-17T10:05:38.645Z,29.2556
2023-03-17T10:08:02.861Z,29.1688
2023-03-17T10:09:03.156Z,29.1044
2023-03-17T10:10:03.454Z,28.8918
2023-03-17T10:12:50.885Z,29.1423
2023-03-17T10:13:51.365Z,29.4544
2023-03-17T10:14:51.708Z,28.5734
2023-03-17T10:46:23.926Z,0.0000
2023-03-17T10:48:07.784Z,31.5806
2023-03-17T10:49:08.139Z,31.5090
2023-03-17T10:52:39.312Z,27.3300
2023-03-17T10:53:39.688Z,26.2092
2023-03-17T10:54:40.057Z,26.2733
2023-03-17T10:55:40.411Z,26.3380
2023-03-17T10:56:40.776Z,26.4679
2023-03-17T10:57:41.186Z,26.5456
2023-03-17T10:58:41.516Z,26.6173
2023-03-17T10:59:43.425Z,26.6020
2023-03-17T11:00:42.555Z,26.7397
2023-03-17T11:01:42.978Z,26.8707
2023-03-17T11:02:43.375Z,26.7920
2023-03-17T11:03:43.767Z,26.8415
2023-03-17T11:04:44.159Z,26.9439
2023-03-17T11:05:44.499Z,26.9345
2023-03-17T11:06:44.858Z,26.9857
2023-03-17T11:07:45.294Z,27.0295
2023-03-17T11:08:45.671Z,27.0474
2023-03-17T11:09:46.086Z,27.0327
2023-03-17T11:10:46.450Z,26.9613
2023-03-17T11:11:46.886Z,26.9880
2023-03-17T11:12:47.249Z,26.8649
2023-03-17T11:13:47.584Z,26.8533
2023-03-17T11:14:47.973Z,26.8663
2023-03-17T11:15:48.323Z,26.8288
2023-03-17T11:16:48.746Z,26.8372
2023-03-17T11:17:49.139Z,26.8099
2023-03-17T11:18:49.497Z,26.8066
2023-03-17T11:19:49.863Z,26.7539
2023-03-17T11:20:50.251Z,27.0136
2023-03-17T11:21:50.608Z,26.9127
2023-03-17T11:22:51.515Z,26.8494
2023-03-17T11:23:51.878Z,26.8144
2023-03-17T11:24:52.257Z,26.8790
2023-03-17T11:25:52.623Z,26.8721
2023-03-17T11:26:52.996Z,26.9167
2023-03-17T11:27:53.349Z,26.9785
2023-03-17T11:28:53.671Z,26.9106
2023-03-17T11:29:54.089Z,27.0195
2023-03-17T11:30:54.455Z,27.1276
2023-03-17T11:31:54.835Z,27.1388
2023-03-17T11:32:55.354Z,27.0754
2023-03-17T11:33:55.747Z,27.0205
2023-03-17T11:34:56.145Z,27.1045
2023-03-17T11:35:56.540Z,27.1456
2023-03-17T11:36:58.691Z,26.9946
2023-03-17T11:37:57.839Z,27.0390
2023-03-17T11:38:58.248Z,26.9986
2023-03-17T11:39:58.618Z,27.0080
2023-03-17T11:40:58.997Z,26.9335
2023-03-17T11:41:59.375Z,27.0059
2023-03-17T11:42:59.849Z,27.0581
2023-03-17T11:44:00.199Z,26.9775
2023-03-17T11:45:00.650Z,26.9334
2023-03-17T11:46:01.025Z,26.9908
2023-03-17T11:47:01.375Z,26.9786
2023-03-17T11:48:01.729Z,26.9530
2023-03-17T11:49:02.143Z,27.0848
2023-03-17T11:50:02.553Z,27.0746
2023-03-17T11:51:02.986Z,27.0423
2023-03-17T11:52:03.371Z,27.0415
2023-03-17T11:53:03.780Z,27.1823
2023-03-17T11:54:04.116Z,27.0286
2023-03-17T11:55:04.508Z,27.1933
2023-03-17T11:56:04.873Z,27.1768
2023-03-17T11:57:05.309Z,27.1509
2023-03-17T11:58:05.653Z,27.1679
2023-03-17T11:59:06.050Z,27.2764
2023-03-17T12:00:06.474Z,27.4507
2023-03-17T12:01:06.841Z,27.3362
2023-03-17T12:02:07.234Z,27.4907
2023-03-17T12:03:07.593Z,27.3753
2023-03-17T12:04:08.131Z,27.3399
2023-03-17T12:05:08.593Z,27.3334
2023-03-17T12:06:08.942Z,27.3147
2023-03-17T12:07:09.337Z,27.2977
2023-03-17T12:08:09.753Z,27.2211
2023-03-17T12:09:10.177Z,27.1923
2023-03-17T12:10:10.547Z,27.1786
2023-03-17T12:11:10.925Z,27.1925
2023-03-17T12:12:11.308Z,27.2260
2023-03-17T12:13:11.705Z,27.2618
2023-03-17T12:14:12.061Z,27.2671
2023-03-17T12:15:12.448Z,27.2694
2023-03-17T12:16:12.834Z,27.1605
2023-03-17T12:17:13.267Z,27.2956
2023-03-17T12:18:13.648Z,27.1452
2023-03-17T12:19:14.022Z,27.2390
2023-03-17T12:20:14.481Z,27.1731
2023-03-17T12:21:14.872Z,27.2208
2023-03-17T12:22:15.276Z,27.2481
2023-03-17T12:23:15.711Z,27.3170
2023-03-17T12:24:16.055Z,27.3292
2023-03-17T12:25:16.525Z,27.4155
2023-03-17T12:26:16.893Z,27.3712
2023-03-17T12:27:17.282Z,27.3417
2023-03-17T12:28:17.701Z,27.3225
2023-03-17T12:29:18.127Z,27.3953
2023-03-17T12:30:18.527Z,27.3421
2023-03-17T12:31:18.824Z,27.3818
2023-03-17T12:32:19.223Z,27.4297
2023-03-17T12:33:19.600Z,27.4491
2023-03-17T12:34:20.169Z,27.4664
2023-03-17T12:35:20.561Z,27.4380
2023-03-17T12:36:20.975Z,27.4536
2023-03-17T12:37:21.393Z,27.3438
2023-03-17T12:38:21.820Z,27.2903
2023-03-17T12:39:22.242Z,27.4193
2023-03-17T12:40:24.576Z,27.4556
2023-03-17T12:41:23.255Z,27.4699
2023-03-17T12:42:23.766Z,27.4231
2023-03-17T12:43:24.222Z,27.3161
2023-03-17T12:44:24.595Z,27.3657
2023-03-17T12:45:25.030Z,27.4367
2023-03-17T12:46:25.492Z,27.4433
2023-03-17T12:47:25.933Z,27.4428
2023-03-17T12:48:26.277Z,27.4137
2023-03-17T12:49:26.664Z,27.3749
2023-03-17T12:50:27.039Z,27.4612
2023-03-17T12:51:27.501Z,27.3159
2023-03-17T12:52:27.869Z,27.2988
2023-03-17T12:53:28.272Z,27.3815
2023-03-17T12:54:28.696Z,27.3818
2023-03-17T12:55:29.442Z,27.4184
2023-03-17T12:56:29.840Z,27.4135
2023-03-17T12:57:30.613Z,27.1344
2023-03-17T12:58:31.013Z,27.3231
2023-03-17T12:59:31.494Z,27.3553
2023-03-17T13:00:31.877Z,27.1904
2023-03-17T13:01:32.384Z,27.2141
2023-03-17T13:02:32.863Z,27.4076
2023-03-17T13:03:33.273Z,27.4273
2023-03-17T13:04:33.694Z,27.4340
2023-03-17T13:05:34.351Z,27.4368
2023-03-17T13:06:34.671Z,27.4060
2023-03-17T13:07:35.160Z,27.4444
2023-03-17T13:08:35.496Z,27.5038
2023-03-17T13:09:35.902Z,27.5022
2023-03-17T13:10:36.296Z,27.4550
2023-03-17T13:11:36.674Z,27.4977
2023-03-17T13:12:37.044Z,27.5535
2023-03-17T13:13:37.422Z,27.5499
2023-03-17T13:14:37.807Z,27.6464
2023-03-17T13:15:38.238Z,27.6153
2023-03-17T13:16:38.663Z,27.6986
2023-03-17T13:17:39.014Z,27.6922
2023-03-17T13:18:39.380Z,27.6275
2023-03-17T13:19:39.827Z,27.5906
2023-03-17T13:20:40.244Z,27.7185
2023-03-17T13:21:40.614Z,27.6769
2023-03-17T13:22:41.026Z,27.7165
2023-03-17T13:23:41.505Z,27.7146
2023-03-17T13:24:41.912Z,27.7032
2023-03-17T13:25:42.280Z,27.6446
2023-03-17T13:26:42.703Z,27.6604
2023-03-17T13:27:43.072Z,27.6432
2023-03-17T13:28:43.476Z,27.7284
2023-03-17T13:29:43.849Z,27.8490
2023-03-17T13:30:44.250Z,27.8540
2023-03-17T13:31:44.671Z,27.7665
2023-03-17T13:32:45.125Z,27.8088
2023-03-17T13:33:45.486Z,27.8146
2023-03-17T13:34:45.895Z,27.9637
2023-03-17T13:35:46.279Z,27.8841
2023-03-17T13:36:46.617Z,27.8461
2023-03-17T13:37:47.005Z,27.7985
2023-03-17T13:38:52.486Z,27.8047
2023-03-17T13:39:49.274Z,27.7896
2023-03-17T13:40:49.618Z,27.7681
2023-03-17T13:41:50.000Z,27.8058
2023-03-17T13:42:50.401Z,27.8568
2023-03-17T13:43:50.777Z,27.8520
2023-03-17T13:44:51.151Z,27.9073
2023-03-17T13:45:51.545Z,27.9050
2023-03-17T13:46:52.033Z,27.9186
2023-03-17T13:47:52.704Z,27.9708
2023-03-17T13:48:53.073Z,28.0162
2023-03-17T13:49:53.473Z,28.0079
2023-03-17T13:50:53.885Z,28.0392
2023-03-17T13:51:59.844Z,28.0083
2023-03-17T13:52:56.095Z,28.0363
2023-03-17T13:53:56.495Z,28.0411
2023-03-17T13:54:56.841Z,28.0241
2023-03-17T13:55:57.271Z,28.0438
2023-03-17T13:56:57.634Z,28.0216
2023-03-17T13:57:57.987Z,28.0228
2023-03-17T13:58:58.387Z,28.0143
2023-03-17T13:59:58.780Z,27.9927
2023-03-17T14:00:59.345Z,27.9632
2023-03-17T14:01:59.773Z,27.9502
2023-03-17T14:03:00.120Z,27.9151
2023-03-17T14:04:00.512Z,27.9584
2023-03-17T14:05:01.001Z,27.9328
2023-03-17T14:06:01.405Z,27.9740
2023-03-17T14:07:01.786Z,27.8952
2023-03-17T14:08:02.171Z,27.8578
2023-03-17T14:09:02.568Z,27.8479
2023-03-17T14:10:02.991Z,27.8533
2023-03-17T14:11:03.353Z,27.7870
2023-03-17T14:12:03.730Z,27.7946
2023-03-17T14:13:05.139Z,27.7725
2023-03-17T14:14:05.534Z,27.7703
2023-03-17T14:15:08.258Z,27.7337
2023-03-17T14:16:06.820Z,27.7120
2023-03-17T14:17:07.170Z,27.6276
2023-03-17T14:18:07.579Z,27.5738
2023-03-17T14:19:07.938Z,27.5989
2023-03-17T14:20:08.494Z,27.5964
2023-03-17T14:21:11.576Z,27.5458
2023-03-17T14:22:09.829Z,27.5542
2023-03-17T14:23:10.186Z,27.5894
2023-03-17T14:24:10.682Z,27.6156
2023-03-17T14:25:10.991Z,27.6261
2023-03-17T14:26:11.414Z,27.7398
2023-03-17T14:27:11.794Z,27.6382
2023-03-17T14:28:12.134Z,27.4375
2023-03-17T14:29:12.517Z,27.3459
2023-03-17T14:30:13.073Z,27.3582
2023-03-17T14:31:13.434Z,27.3739
2023-03-17T14:32:13.812Z,27.4956
2023-03-17T14:33:14.165Z,27.4541
2023-03-17T14:34:14.572Z,27.4695
2023-03-17T14:35:14.971Z,27.5432
2023-03-17T14:36:15.396Z,27.3515
2023-03-17T14:37:15.724Z,27.4691
2023-03-17T14:38:16.087Z,27.3885
2023-03-17T14:39:16.452Z,27.3074
2023-03-17T14:40:16.833Z,27.2813
2023-03-17T14:41:17.212Z,27.3326
2023-03-17T14:42:17.555Z,27.3069
2023-03-17T14:43:17.942Z,27.3777
2023-03-17T14:44:18.350Z,27.3875
2023-03-17T14:45:18.791Z,27.2894
2023-03-17T14:46:19.203Z,27.2283
2023-03-17T14:47:19.584Z,27.2561
2023-03-17T14:48:19.944Z,27.3190
2023-03-17T14:49:20.347Z,27.2622
2023-03-17T14:50:20.700Z,27.3482
2023-03-17T14:51:21.064Z,27.3940
2023-03-17T14:52:21.432Z,27.2123
2023-03-17T14:53:21.853Z,27.2810
2023-03-17T14:54:22.187Z,27.2484
2023-03-17T14:55:22.562Z,27.1712
2023-03-17T14:56:23.039Z,27.0673
2023-03-17T14:57:23.413Z,27.0935
2023-03-17T14:58:23.832Z,27.1241
2023-03-17T14:59:24.217Z,27.3343
2023-03-17T15:00:24.584Z,27.3382
2023-03-17T15:01:26.961Z,27.3334
2023-03-17T15:02:26.265Z,27.2453
2023-03-17T15:03:26.650Z,27.3777
2023-03-17T15:04:27.128Z,27.3992
2023-03-17T15:05:27.477Z,27.2458
2023-03-17T15:06:28.343Z,27.1521
2023-03-17T15:07:28.671Z,27.3104
2023-03-17T15:08:29.042Z,27.2971
2023-03-17T15:09:29.389Z,27.2089
2023-03-17T15:10:30.185Z,27.2771
2023-03-17T15:11:30.567Z,27.2758
2023-03-17T15:12:30.947Z,27.3368
2023-03-17T15:13:31.300Z,27.2681
2023-03-17T15:14:31.695Z,27.3298
2023-03-17T15:15:32.098Z,27.1971
2023-03-17T15:16:32.514Z,27.1954
2023-03-17T15:17:32.877Z,27.1732
2023-03-17T15:18:33.221Z,27.2632
2023-03-17T15:19:33.604Z,27.3095
2023-03-17T15:20:34.149Z,27.1863
2023-03-17T15:21:34.561Z,27.1833
2023-03-17T15:22:34.904Z,27.2259
2023-03-17T15:23:35.255Z,27.2752
2023-03-17T15:24:35.658Z,27.3546
2023-03-17T15:25:36.037Z,27.3172
2023-03-17T15:26:36.559Z,27.2940
2023-03-17T15:27:37.058Z,27.2319
2023-03-17T15:28:37.405Z,27.2541
2023-03-17T15:29:37.767Z,27.2788
2023-03-17T15:30:47.204Z,27.3218
2023-03-17T15:31:39.981Z,27.2882
2023-03-17T15:32:40.364Z,27.2345
2023-03-17T15:33:40.720Z,27.2686
2023-03-17T15:34:41.106Z,27.2906
2023-03-17T15:35:41.531Z,27.2838
2023-03-17T15:36:41.872Z,27.3232
2023-03-17T15:37:42.286Z,27.4043
2023-03-17T15:38:42.629Z,27.4005
2023-03-17T15:39:43.068Z,27.2635
2023-03-17T15:40:43.440Z,27.2472
2023-03-17T15:41:43.832Z,27.3518
2023-03-17T15:42:44.208Z,27.3997
2023-03-17T15:43:44.597Z,27.4203
2023-03-17T15:44:44.994Z,27.3610
2023-03-17T15:45:45.448Z,27.3694
2023-03-17T15:46:46.379Z,27.4290
2023-03-17T15:47:46.800Z,27.5042
2023-03-17T15:48:47.135Z,27.5533
2023-03-17T15:49:47.516Z,27.5200
2023-03-17T15:50:47.885Z,27.5521
2023-03-17T15:51:48.289Z,27.4761
2023-03-17T15:52:48.677Z,27.4827
2023-03-17T15:53:49.036Z,27.4335
2023-03-17T15:54:49.436Z,27.3541
2023-03-17T15:55:49.816Z,27.5300
2023-03-17T15:56:50.208Z,27.4233
2023-03-17T15:57:55.164Z,27.4560
2023-03-17T15:58:52.581Z,27.4760
2023-03-17T15:59:52.930Z,27.3399
2023-03-17T16:00:53.310Z,27.3341
2023-03-17T16:01:53.760Z,27.3176
2023-03-17T16:02:54.149Z,27.3056
2023-03-17T16:03:54.690Z,27.2721
2023-03-17T16:04:55.105Z,27.3237
2023-03-17T16:05:55.526Z,27.2830
2023-03-17T16:06:55.965Z,27.1914
2023-03-17T16:07:57.414Z,27.3752
2023-03-17T16:08:57.822Z,27.3996
2023-03-17T16:09:58.256Z,27.4411
2023-03-17T16:10:58.669Z,27.3685
2023-03-17T16:11:59.163Z,27.3598
2023-03-17T16:12:59.574Z,27.4260
2023-03-17T16:14:00.065Z,27.5199
2023-03-17T16:15:01.979Z,27.5183
2023-03-17T16:16:01.337Z,27.4606
2023-03-17T16:17:01.805Z,27.4726
2023-03-17T16:18:02.251Z,27.4457
2023-03-17T16:19:02.648Z,27.4363
2023-03-17T16:20:03.227Z,27.4067
2023-03-17T16:21:03.628Z,27.3792
2023-03-17T16:22:04.072Z,27.4271
2023-03-17T16:23:04.481Z,27.4640
2023-03-17T16:24:04.930Z,27.4825
2023-03-17T16:25:05.330Z,27.5064
2023-03-17T16:26:15.007Z,27.6670
2023-03-17T16:27:07.674Z,27.6388
2023-03-17T16:28:08.077Z,27.6625
2023-03-17T16:29:08.491Z,27.6268
2023-03-17T16:30:08.929Z,27.6283
2023-03-17T16:31:09.696Z,27.5982
2023-03-17T16:32:10.164Z,27.6292
2023-03-17T16:33:10.638Z,27.6032
2023-03-17T16:34:11.028Z,27.6381
2023-03-17T16:35:11.460Z,27.6453
2023-03-17T16:36:11.911Z,27.6053
2023-03-17T16:37:12.364Z,27.5781
2023-03-17T16:38:12.788Z,27.6574
2023-03-17T16:39:13.210Z,27.5975
2023-03-17T16:40:15.236Z,27.6059
2023-03-17T16:41:15.666Z,27.6566
2023-03-17T16:42:16.075Z,27.6948
2023-03-17T16:43:25.313Z,27.6651
2023-03-17T16:44:18.384Z,27.6963
2023-03-17T16:45:18.762Z,27.8575
2023-03-17T16:46:19.220Z,27.9294
2023-03-17T16:47:19.638Z,28.0201
2023-03-17T16:48:20.057Z,28.0184
2023-03-17T16:49:20.495Z,28.0242
2023-03-17T16:50:20.918Z,28.0460
2023-03-17T16:51:21.339Z,28.0745
2023-03-17T16:52:21.776Z,28.1450
2023-03-17T16:53:22.222Z,28.1429
2023-03-17T16:54:22.674Z,28.1208
2023-03-17T16:55:23.080Z,28.1576
2023-03-17T16:56:23.591Z,28.1992
2023-03-17T16:57:24.061Z,28.2605
2023-03-17T16:58:24.508Z,28.3190
2023-03-17T16:59:24.925Z,28.3370
2023-03-17T17:00:25.420Z,28.5102
2023-03-17T17:01:25.857Z,28.7007
2023-03-17T17:02:26.312Z,28.6803
2023-03-17T17:03:26.754Z,28.6233
2023-03-17T17:04:27.207Z,28.6222
2023-03-17T17:05:27.649Z,28.6240
2023-03-17T17:06:28.089Z,28.5978
2023-03-17T17:07:28.560Z,28.6776
2023-03-17T17:08:29.033Z,28.6184
2023-03-17T17:09:29.452Z,28.6918
2023-03-17T17:10:30.306Z,28.6661
2023-03-17T17:11:30.799Z,28.7169
2023-03-17T17:12:31.245Z,28.6989
2023-03-17T17:13:31.707Z,28.6911
2023-03-17T17:14:32.099Z,28.7072
2023-03-17T17:15:32.538Z,28.7108
2023-03-17T17:16:33.118Z,28.7266
2023-03-17T17:17:33.637Z,28.7936
2023-03-17T17:18:36.474Z,28.8205
2023-03-17T17:19:35.916Z,28.8158
2023-03-17T17:20:36.289Z,28.8773
2023-03-17T17:21:36.718Z,28.9855
2023-03-17T17:22:37.138Z,29.1294
2023-03-17T17:23:37.553Z,29.1747
2023-03-17T17:24:38.027Z,29.1058
2023-03-17T17:25:38.442Z,29.2072
2023-03-17T17:26:38.876Z,29.2806
2023-03-17T17:27:39.342Z,29.2910
2023-03-17T17:28:39.749Z,29.3215
2023-03-17T17:29:40.184Z,29.2923
2023-03-17T17:30:40.601Z,29.3178
2023-03-17T17:31:41.113Z,29.3347
2023-03-17T17:32:41.545Z,29.3681
2023-03-17T17:33:41.945Z,29.4942
2023-03-17T17:34:42.352Z,29.7792
2023-03-17T17:35:42.800Z,29.5885
2023-03-17T17:36:43.218Z,29.5698
2023-03-17T17:37:43.634Z,29.4779
2023-03-17T17:38:44.043Z,29.4845
2023-03-17T17:39:44.500Z,29.5243
2023-03-17T17:40:44.897Z,29.5105
2023-03-17T17:41:45.370Z,29.5291
2023-03-17T17:42:45.771Z,29.5344
2023-03-17T17:43:46.359Z,29.5001
2023-03-17T17:44:46.805Z,29.5592
2023-03-17T17:45:47.235Z,29.6188
2023-03-17T17:46:47.660Z,29.5999
2023-03-17T17:47:48.092Z,29.5914
2023-03-17T17:48:48.512Z,29.5409
2023-03-17T17:49:48.917Z,29.5009
2023-03-17T17:50:49.333Z,29.5234
2023-03-17T17:51:49.756Z,29.5528
2023-03-17T17:52:50.192Z,29.5884
2023-03-17T17:53:50.611Z,29.6339
2023-03-17T17:54:51.021Z,29.6934
2023-03-17T17:55:51.455Z,29.6570
2023-03-17T17:56:51.869Z,29.6811
2023-03-17T17:57:52.597Z,29.6654
2023-03-17T17:58:52.983Z,29.6629
2023-03-17T17:59:53.418Z,29.6575
2023-03-17T18:00:53.860Z,29.6650
2023-03-17T18:01:54.251Z,29.6481
2023-03-17T18:02:54.689Z,29.6961
2023-03-17T18:03:55.115Z,29.6996
2023-03-17T18:04:55.580Z,29.7171
2023-03-17T18:05:55.959Z,29.7047
2023-03-17T18:06:56.360Z,29.7475
2023-03-17T18:07:56.795Z,29.7258
2023-03-17T18:08:57.204Z,29.7139
2023-03-17T18:09:57.676Z,29.7490
2023-03-17T18:10:58.064Z,29.7703
2023-03-17T18:11:58.508Z,29.7638
2023-03-17T18:12:58.941Z,29.7525
2023-03-17T18:13:59.390Z,29.7668
2023-03-17T18:14:59.794Z,29.7745
2023-03-17T18:16:00.217Z,29.8032
2023-03-17T18:17:00.643Z,29.8394
2023-03-17T18:18:01.093Z,29.8463
2023-03-17T18:19:01.483Z,29.8337
2023-03-17T18:20:01.923Z,29.8381
2023-03-17T18:21:02.310Z,29.8792
2023-03-17T18:22:02.741Z,29.8560
2023-03-17T18:23:03.169Z,29.8817
2023-03-17T18:24:03.583Z,29.8698
2023-03-17T18:25:04.009Z,29.8698
2023-03-17T18:26:04.429Z,29.8572
2023-03-17T18:27:04.834Z,29.8427
2023-03-17T18:28:05.303Z,29.8330
2023-03-17T18:29:05.733Z,29.8285
2023-03-17T18:30:06.153Z,29.8221
2023-03-17T18:31:06.595Z,29.8144
2023-03-17T18:32:07.093Z,29.8258
2023-03-17T18:33:07.707Z,29.7993
2023-03-17T18:34:08.130Z,29.7915
2023-03-17T18:35:08.529Z,29.7989
2023-03-17T18:36:08.998Z,29.7862
2023-03-17T18:37:09.420Z,29.7900
2023-03-17T18:38:09.875Z,29.7750
2023-03-17T18:39:10.296Z,29.7896
2023-03-17T18:40:15.157Z,29.7632
2023-03-17T18:41:12.613Z,29.7828
2023-03-17T18:42:13.018Z,29.7649
2023-03-17T18:43:13.459Z,29.7525
2023-03-17T18:44:13.890Z,29.7512
2023-03-17T18:45:14.343Z,29.7548
2023-03-17T18:46:14.734Z,29.7551
2023-03-17T18:47:15.142Z,29.7791
2023-03-17T18:48:15.577Z,29.7646
2023-03-17T18:49:16.019Z,29.7717
2023-03-17T18:50:16.437Z,29.7415
2023-03-17T18:51:16.854Z,29.7379
2023-03-17T18:52:17.292Z,29.7365
2023-03-17T18:53:17.733Z,29.7436
2023-03-17T18:54:18.180Z,29.7245
2023-03-17T18:55:18.600Z,29.6996
2023-03-17T18:56:19.030Z,29.7041
2023-03-17T18:57:19.459Z,29.7034
2023-03-17T18:58:19.898Z,29.6831
2023-03-17T18:59:20.300Z,29.6770
2023-03-17T19:00:20.756Z,29.6871
2023-03-17T19:01:21.242Z,29.6779
2023-03-17T19:02:21.622Z,29.6984
2023-03-17T19:03:22.089Z,29.7084
2023-03-17T19:04:22.486Z,29.7257
2023-03-17T19:05:22.907Z,29.7279
2023-03-17T19:06:23.337Z,29.7394
2023-03-17T19:07:23.745Z,29.7350
2023-03-17T19:08:24.184Z,29.7464
2023-03-17T19:09:24.606Z,29.7440
2023-03-17T19:10:25.043Z,29.7620
2023-03-17T19:11:25.456Z,29.7732
2023-03-17T19:12:25.901Z,29.7697
2023-03-17T19:13:26.325Z,29.7875
2023-03-17T19:14:26.762Z,29.8209
2023-03-17T19:15:27.171Z,29.8085
2023-03-17T19:16:27.611Z,29.8043
2023-03-17T19:17:28.028Z,29.8030
2023-03-17T19:18:28.461Z,29.7953
2023-03-17T19:19:28.871Z,29.7828
2023-03-17T19:20:29.728Z,29.7862
2023-03-17T19:21:31.229Z,29.7663
2023-03-17T19:22:31.637Z,29.7653
2023-03-17T19:23:32.071Z,29.7522
2023-03-17T19:24:32.493Z,29.7481
2023-03-17T19:25:32.909Z,29.7271
2023-03-17T19:26:33.338Z,29.7273
2023-03-17T19:27:33.756Z,29.7128
2023-03-17T19:28:34.198Z,29.7126
2023-03-17T19:29:34.614Z,29.6988
2023-03-17T19:30:35.501Z,29.6861
2023-03-17T19:31:36.011Z,29.6811
2023-03-17T19:32:36.456Z,29.6558
2023-03-17T19:33:36.859Z,29.6718
2023-03-17T19:34:37.296Z,29.6284
2023-03-17T19:35:37.749Z,29.6011
2023-03-17T19:36:38.159Z,29.5957
2023-03-17T19:37:38.580Z,29.5889
2023-03-17T19:38:39.028Z,29.5858
2023-03-17T19:39:39.458Z,29.5572
2023-03-17T19:40:39.891Z,29.5428
2023-03-17T19:41:40.317Z,29.5342
2023-03-17T19:42:40.742Z,29.5181
2023-03-17T19:43:41.783Z,29.5082
2023-03-17T19:44:42.254Z,29.4781
2023-03-17T19:45:42.843Z,29.4449
2023-03-17T19:46:43.278Z,29.4350
2023-03-17T19:47:43.709Z,29.4248
2023-03-17T19:48:44.141Z,29.4059
2023-03-17T19:49:44.579Z,29.3815
2023-03-17T19:50:44.982Z,29.3846
2023-03-17T19:51:45.419Z,29.3892
2023-03-17T19:52:45.845Z,29.4040
2023-03-17T19:53:46.277Z,29.4180
2023-03-17T19:54:46.693Z,29.4161
2023-03-17T19:55:47.111Z,29.4500
2023-03-17T19:56:47.527Z,29.4632
2023-03-17T19:57:47.962Z,29.4899
2023-03-17T19:58:48.412Z,29.5004
2023-03-17T19:59:48.819Z,29.5129
2023-03-17T20:00:49.232Z,29.5319
2023-03-17T20:01:49.699Z,29.5663
2023-03-17T20:02:50.093Z,29.5750
2023-03-17T20:03:50.570Z,29.5850
2023-03-17T20:04:51.060Z,29.5861
2023-03-17T20:05:51.454Z,29.6034
2023-03-17T20:06:51.890Z,29.5982
2023-03-17T20:07:52.335Z,29.6109
2023-03-17T20:08:52.769Z,29.6083
2023-03-17T20:09:53.212Z,29.6258
2023-03-17T20:10:53.643Z,29.6315
2023-03-17T20:11:54.071Z,29.6526
2023-03-17T20:12:54.498Z,29.6741
2023-03-17T20:13:54.926Z,29.6752
2023-03-17T20:14:55.357Z,29.6984
2023-03-17T20:15:55.876Z,29.7138
2023-03-17T20:16:56.260Z,29.7230
2023-03-17T20:17:56.697Z,29.7606
2023-03-17T20:18:57.124Z,29.7901
2023-03-17T20:19:57.552Z,29.7947
2023-03-17T20:20:57.976Z,29.8087
2023-03-17T20:21:58.403Z,29.7938
2023-03-17T20:22:58.817Z,29.8092
2023-03-17T20:23:59.283Z,29.8246
2023-03-17T20:24:59.702Z,29.8470
2023-03-17T20:26:00.126Z,29.8612
2023-03-17T20:27:00.635Z,29.9059
2023-03-17T20:28:00.887Z,29.9141
2023-03-17T20:29:01.393Z,29.9337
2023-03-17T20:30:01.893Z,29.9574
2023-03-17T20:31:02.372Z,29.9821
2023-03-17T20:32:02.851Z,30.0179
2023-03-17T20:33:03.338Z,30.0251
2023-03-17T20:34:03.802Z,30.0507
2023-03-17T20:35:06.136Z,30.0834
2023-03-17T20:36:05.660Z,30.1070
2023-03-17T20:37:06.096Z,30.1219
2023-03-17T20:38:06.583Z,30.1408
2023-03-17T20:39:07.083Z,30.1728
2023-03-17T20:40:07.551Z,30.2014
2023-03-17T20:41:08.044Z,30.2300
2023-03-17T20:42:08.509Z,30.2459
2023-03-17T20:43:08.982Z,30.2859
2023-03-17T20:44:09.467Z,30.3109
2023-03-17T20:45:09.957Z,30.3348
2023-03-17T20:46:10.442Z,30.3613
2023-03-17T20:47:10.922Z,30.3916
2023-03-17T20:48:11.382Z,30.4401
2023-03-17T20:49:11.867Z,30.4451
2023-03-17T20:50:12.357Z,30.4735
2023-03-17T20:51:12.818Z,30.4891
2023-03-17T20:52:13.294Z,30.5371
2023-03-17T20:53:13.752Z,30.5617
2023-03-17T20:54:14.231Z,30.5891
2023-03-17T20:55:14.706Z,30.6072
2023-03-17T20:56:15.199Z,30.6113
2023-03-17T20:57:15.682Z,30.6078
2023-03-17T20:58:16.172Z,30.6142
2023-03-17T20:59:16.645Z,30.6277
2023-03-17T21:00:17.131Z,30.6498
2023-03-17T21:01:19.812Z,30.6781
2023-03-17T21:02:19.096Z,30.6690
2023-03-17T21:03:19.607Z,30.6759
2023-03-17T21:04:20.074Z,30.6825
2023-03-17T21:05:20.554Z,30.6652
2023-03-17T21:06:21.021Z,30.6698
2023-03-17T21:07:21.506Z,30.6389
2023-03-17T21:08:21.987Z,30.6250
2023-03-17T21:09:22.516Z,30.6003
2023-03-17T21:10:23.014Z,30.5935
2023-03-17T21:11:23.493Z,30.5813
2023-03-17T21:12:23.981Z,30.5650
2023-03-17T21:13:24.463Z,30.5442
2023-03-17T21:14:24.934Z,30.5442
2023-03-17T21:15:25.432Z,30.5284
2023-03-17T21:16:25.963Z,30.5114
2023-03-17T21:17:26.409Z,30.5078
2023-03-17T21:18:26.929Z,30.4904
2023-03-17T21:19:27.424Z,30.4800
2023-03-17T21:20:27.896Z,30.4711
2023-03-17T21:21:28.403Z,30.4901
2023-03-17T21:22:28.868Z,30.4751
2023-03-17T21:23:29.345Z,30.4754
2023-03-17T21:24:29.844Z,30.4649
2023-03-17T21:25:30.325Z,30.4511
2023-03-17T21:26:30.792Z,30.4464
2023-03-17T21:27:31.279Z,30.4352
2023-03-17T21:28:31.747Z,30.4284
2023-03-17T21:29:32.279Z,30.4158
2023-03-17T21:30:33.005Z,30.4107
2023-03-17T21:31:33.612Z,30.3943
2023-03-17T21:32:34.062Z,30.3785
2023-03-17T21:33:34.543Z,30.3609
2023-03-17T21:34:35.027Z,30.3530
2023-03-17T21:35:35.559Z,30.3467
2023-03-17T21:36:36.016Z,30.3355
2023-03-17T21:37:36.507Z,30.3386
2023-03-17T21:38:36.980Z,30.3218
2023-03-17T21:39:37.473Z,30.3088
2023-03-17T21:40:37.949Z,30.3020
2023-03-17T21:41:38.454Z,30.2811
2023-03-17T21:42:38.929Z,30.2796
2023-03-17T21:43:39.424Z,30.2674
2023-03-17T21:44:39.909Z,30.2642
2023-03-17T21:45:40.434Z,30.2607
2023-03-17T21:46:40.976Z,30.2550
2023-03-17T21:47:41.491Z,30.2425
2023-03-17T21:48:41.954Z,30.2463
2023-03-17T21:49:42.448Z,30.2477
2023-03-17T21:50:42.936Z,30.2406
2023-03-17T21:51:43.424Z,30.2481
2023-03-17T21:52:43.913Z,30.2338
2023-03-17T21:53:44.401Z,30.2260
2023-03-17T21:54:44.906Z,30.2281
2023-03-17T21:55:45.391Z,30.2206
2023-03-17T21:56:45.853Z,30.2188
2023-03-17T21:57:46.350Z,30.2186
2023-03-17T21:58:46.822Z,30.2158
2023-03-17T21:59:47.324Z,30.2050
2023-03-17T22:00:48.107Z,30.2037
2023-03-17T22:01:48.706Z,30.1994
2023-03-17T22:02:49.176Z,30.1995
2023-03-17T22:03:49.653Z,30.2040
2023-03-17T22:04:50.150Z,30.1943
2023-03-17T22:05:50.617Z,30.1901
2023-03-17T22:06:51.091Z,30.1974
2023-03-17T22:07:51.589Z,30.1870
2023-03-17T22:08:52.052Z,30.1842
2023-03-17T22:09:52.554Z,30.1819
2023-03-17T22:10:53.009Z,30.1779
2023-03-17T22:11:53.492Z,30.1819
2023-03-17T22:12:53.970Z,30.1677
2023-03-17T22:13:54.453Z,30.1571
2023-03-17T22:14:54.959Z,30.1697
2023-03-17T22:15:55.423Z,30.1573
2023-03-17T22:16:55.972Z,30.1577
2023-03-17T22:17:56.392Z,30.1495
2023-03-17T22:18:56.898Z,30.1550
2023-03-17T22:19:57.380Z,30.1515
2023-03-17T22:20:57.841Z,30.1473
2023-03-17T22:21:58.331Z,30.1330
2023-03-17T22:22:58.805Z,30.1393
2023-03-17T22:23:59.275Z,30.1378
2023-03-17T22:24:59.767Z,30.1456
2023-03-17T22:26:00.273Z,30.1437
2023-03-17T22:27:00.753Z,30.1409
2023-03-17T22:28:01.250Z,30.1265
2023-03-17T22:29:01.745Z,30.1209
2023-03-17T22:30:02.237Z,30.1303
2023-03-17T22:31:02.729Z,30.1287
2023-03-17T22:32:03.281Z,30.1352
2023-03-17T22:33:03.807Z,30.1323
2023-03-17T22:34:04.268Z,30.1138
2023-03-17T22:35:04.746Z,30.1160